createdAt,value
2017-10-19T00:01:57.762Z,11.40
2017-10-19T00:04:24.459Z,11.40
2017-10-19T00:06:51.769Z,11.40
2017-10-19T00:09:18.572Z,11.40
2017-10-19T00:11:45.091Z,11.40
2017-10-19T00:14:12.582Z,11.30
2017-10-19T00:16:38.806Z,11.30
2017-10-19T00:19:06.551Z,11.30
2017-10-19T00:21:34.110Z,11.20
2017-10-19T00:24:00.778Z,11.10
2017-10-19T00:26:28.106Z,10.70
2017-10-19T00:28:55.189Z,10.60
2017-10-19T00:31:21.375Z,10.60
2017-10-19T00:33:48.316Z,10.60
2017-10-19T00:36:15.377Z,10.70
2017-10-19T00:38:41.611Z,10.70
2017-10-19T00:41:07.825Z,10.60
2017-10-19T00:43:34.048Z,10.70
2017-10-19T00:46:01.425Z,10.70
2017-10-19T00:48:27.734Z,10.70
2017-10-19T00:50:54.565Z,10.70
2017-10-19T00:53:22.929Z,10.70
2017-10-19T00:55:49.826Z,10.70
2017-10-19T00:58:16.259Z,10.70
2017-10-19T01:00:44.432Z,10.50
2017-10-19T01:03:11.651Z,10.50
2017-10-19T01:05:38.978Z,10.50
2017-10-19T01:08:07.410Z,10.60
2017-10-19T01:10:34.634Z,10.50
2017-10-19T01:13:01.476Z,10.60
2017-10-19T01:15:28.713Z,10.70
2017-10-19T01:17:56.255Z,10.80
2017-10-19T01:20:23.475Z,10.80
2017-10-19T01:22:50.199Z,10.60
2017-10-19T01:25:17.082Z,10.50
2017-10-19T01:27:43.477Z,10.40
2017-10-19T01:30:11.592Z,10.40
2017-10-19T01:32:38.791Z,10.40
2017-10-19T01:35:05.650Z,10.50
2017-10-19T01:37:31.911Z,10.50
2017-10-19T01:39:59.208Z,10.50
2017-10-19T01:42:25.471Z,10.40
2017-10-19T01:44:52.613Z,10.30
2017-10-19T01:47:19.260Z,10.40
2017-10-19T01:49:58.056Z,10.40
2017-10-19T01:52:24.943Z,10.40
2017-10-19T01:54:52.227Z,10.30
2017-10-19T01:57:19.754Z,10.50
2017-10-19T01:59:46.571Z,10.40
2017-10-19T02:02:12.856Z,10.50
2017-10-19T02:04:40.835Z,10.60
2017-10-19T02:07:07.973Z,10.60
2017-10-19T02:09:34.935Z,10.70
2017-10-19T02:12:01.807Z,10.70
2017-10-19T02:14:28.572Z,10.70
2017-10-19T02:16:55.367Z,10.60
2017-10-19T02:19:22.090Z,10.60
2017-10-19T02:21:48.344Z,10.70
2017-10-19T02:24:14.610Z,10.70
2017-10-19T02:26:40.910Z,10.80
2017-10-19T02:29:07.399Z,10.80
2017-10-19T02:31:34.970Z,10.80
2017-10-19T02:34:01.889Z,10.80
2017-10-19T02:36:29.380Z,10.90
2017-10-19T02:38:56.173Z,10.80
2017-10-19T02:41:23.399Z,10.80
2017-10-19T02:43:50.156Z,10.70
2017-10-19T02:46:16.727Z,10.90
2017-10-19T02:48:44.064Z,10.90
2017-10-19T02:51:12.508Z,10.90
2017-10-19T02:53:39.213Z,10.80
2017-10-19T02:56:06.409Z,10.70
2017-10-19T02:58:33.398Z,10.70
2017-10-19T03:01:01.377Z,10.60
2017-10-19T03:03:27.607Z,10.60
2017-10-19T03:05:54.272Z,10.60
2017-10-19T03:08:20.679Z,10.60
2017-10-19T03:10:48.298Z,10.60
2017-10-19T03:13:14.574Z,10.60
2017-10-19T03:15:41.014Z,10.50
2017-10-19T03:18:07.886Z,10.50
2017-10-19T03:20:35.012Z,10.50
2017-10-19T03:23:01.982Z,10.60
2017-10-19T03:25:29.412Z,10.50
2017-10-19T03:27:57.040Z,10.50
2017-10-19T03:30:25.335Z,10.40
2017-10-19T03:32:52.478Z,10.30
2017-10-19T03:35:18.954Z,10.30
2017-10-19T03:37:45.179Z,10.20
2017-10-19T03:40:11.659Z,10.10
2017-10-19T03:42:38.742Z,10.00
2017-10-19T03:45:04.972Z,10.00
2017-10-19T03:47:31.436Z,9.90
2017-10-19T03:49:58.707Z,9.90
2017-10-19T03:52:24.914Z,9.70
2017-10-19T03:54:51.741Z,9.90
2017-10-19T03:57:17.996Z,9.70
2017-10-19T03:59:44.693Z,9.80
2017-10-19T04:02:10.948Z,9.70
2017-10-19T04:04:38.100Z,9.60
2017-10-19T04:07:06.339Z,9.60
2017-10-19T04:09:33.157Z,9.60
2017-10-19T04:12:01.526Z,9.60
2017-10-19T04:14:28.484Z,9.50
2017-10-19T04:16:55.303Z,9.60
2017-10-19T04:19:23.686Z,9.50
2017-10-19T04:21:51.270Z,9.50
2017-10-19T04:24:18.261Z,9.40
2017-10-19T04:26:44.729Z,9.60
2017-10-19T04:29:12.341Z,9.60
2017-10-19T04:31:38.540Z,9.60
2017-10-19T04:34:05.101Z,9.50
2017-10-19T04:36:33.122Z,9.30
2017-10-19T04:39:00.565Z,9.40
2017-10-19T04:41:28.481Z,9.40
2017-10-19T04:43:55.296Z,9.30
2017-10-19T04:46:22.263Z,9.30
2017-10-19T04:48:48.476Z,9.30
2017-10-19T04:51:16.289Z,9.30
2017-10-19T04:53:43.477Z,9.50
2017-10-19T04:56:10.509Z,9.50
2017-10-19T04:58:40.190Z,9.50
2017-10-19T05:01:06.435Z,9.60
2017-10-19T05:03:32.956Z,9.50
2017-10-19T05:06:01.299Z,9.50
2017-10-19T05:08:27.723Z,9.30
2017-10-19T05:10:54.708Z,9.20
2017-10-19T05:13:21.578Z,9.20
2017-10-19T05:15:49.044Z,9.10
2017-10-19T05:18:16.663Z,9.00
2017-10-19T05:20:44.794Z,9.00
2017-10-19T05:23:11.752Z,9.00
2017-10-19T05:25:38.693Z,9.00
2017-10-19T05:28:05.942Z,9.00
2017-10-19T05:30:32.166Z,9.00
2017-10-19T05:32:58.382Z,8.90
2017-10-19T05:35:25.352Z,9.00
2017-10-19T05:37:51.551Z,9.00
2017-10-19T05:40:18.506Z,8.90
2017-10-19T05:42:45.458Z,8.80
2017-10-19T05:45:11.832Z,8.70
2017-10-19T05:47:40.171Z,8.70
2017-10-19T05:50:07.004Z,8.70
2017-10-19T05:52:33.540Z,8.80
2017-10-19T05:54:59.776Z,8.90
2017-10-19T05:57:26.641Z,9.00
2017-10-19T05:59:52.993Z,9.10
2017-10-19T06:02:19.454Z,9.20
2017-10-19T06:04:47.612Z,9.30
2017-10-19T06:07:14.353Z,9.30
2017-10-19T06:09:40.831Z,9.40
2017-10-19T06:12:07.863Z,9.30
2017-10-19T06:14:34.209Z,9.30
2017-10-19T06:17:01.248Z,9.20
2017-10-19T06:19:28.260Z,9.20
2017-10-19T06:21:55.239Z,9.00
2017-10-19T06:24:21.676Z,9.00
2017-10-19T06:26:48.731Z,9.10
2017-10-19T06:29:15.005Z,9.10
2017-10-19T06:31:41.776Z,9.20
2017-10-19T06:34:08.745Z,9.30
2017-10-19T06:36:35.196Z,9.20
2017-10-19T06:39:02.265Z,9.40
2017-10-19T06:41:29.839Z,9.40
2017-10-19T06:43:57.538Z,9.50
2017-10-19T06:46:24.306Z,9.40
2017-10-19T06:48:50.537Z,9.50
2017-10-19T06:51:16.794Z,9.50
2017-10-19T06:53:43.045Z,9.50
2017-10-19T06:56:10.573Z,9.80
2017-10-19T06:58:37.388Z,9.80
2017-10-19T07:01:04.410Z,10.00
2017-10-19T07:03:30.664Z,9.90
2017-10-19T07:05:57.867Z,10.00
2017-10-19T07:08:25.784Z,10.10
2017-10-19T07:10:52.979Z,10.00
2017-10-19T07:13:19.954Z,10.10
2017-10-19T07:15:46.407Z,10.10
2017-10-19T07:18:13.036Z,10.20
2017-10-19T07:20:39.502Z,10.30
2017-10-19T07:23:06.955Z,10.50
2017-10-19T07:25:35.180Z,10.60
2017-10-19T07:28:01.413Z,10.50
2017-10-19T07:30:28.277Z,10.60
2017-10-19T07:32:55.289Z,10.70
2017-10-19T07:35:22.222Z,10.80
2017-10-19T07:37:50.689Z,10.90
2017-10-19T07:40:17.767Z,10.90
2017-10-19T07:42:44.827Z,11.10
2017-10-19T07:45:11.141Z,11.00
2017-10-19T07:47:39.073Z,11.20
2017-10-19T07:50:05.836Z,11.20
2017-10-19T07:52:33.072Z,11.30
2017-10-19T07:55:01.486Z,11.30
2017-10-19T07:57:27.719Z,11.30
2017-10-19T07:59:53.915Z,11.30
2017-10-19T08:02:20.149Z,11.30
2017-10-19T08:04:47.107Z,11.30
2017-10-19T08:07:14.047Z,11.20
2017-10-19T08:09:41.009Z,11.10
2017-10-19T08:12:07.268Z,11.10
2017-10-19T08:14:34.874Z,11.20
2017-10-19T08:17:02.391Z,11.20
2017-10-19T08:19:29.720Z,11.20
2017-10-19T08:21:57.112Z,11.30
2017-10-19T08:24:24.785Z,11.30
2017-10-19T08:26:51.890Z,11.30
2017-10-19T08:29:18.209Z,11.30
2017-10-19T08:31:45.902Z,11.40
2017-10-19T08:34:12.154Z,11.60
2017-10-19T08:36:38.641Z,11.70
2017-10-19T08:39:04.916Z,11.80
2017-10-19T08:41:31.131Z,11.90
2017-10-19T08:43:57.652Z,11.90
2017-10-19T08:46:24.583Z,12.00
2017-10-19T08:48:51.526Z,12.00
2017-10-19T08:51:18.687Z,12.00
2017-10-19T08:53:45.101Z,12.10
2017-10-19T08:56:11.816Z,12.10
2017-10-19T08:58:38.185Z,12.00
2017-10-19T09:01:04.909Z,12.00
2017-10-19T09:03:31.518Z,12.10
2017-10-19T09:05:59.342Z,12.10
2017-10-19T09:08:25.848Z,12.10
2017-10-19T09:10:52.677Z,12.20
2017-10-19T09:13:19.538Z,12.30
2017-10-19T09:15:46.305Z,12.40
2017-10-19T09:18:13.392Z,12.60
2017-10-19T09:20:40.973Z,12.90
2017-10-19T09:23:08.425Z,12.90
2017-10-19T09:25:35.731Z,12.80
2017-10-19T09:28:02.018Z,12.80
2017-10-19T09:30:28.491Z,12.80
2017-10-19T09:32:54.926Z,12.80
2017-10-19T09:35:22.442Z,12.80
2017-10-19T09:37:48.656Z,12.80
2017-10-19T09:40:15.021Z,12.80
2017-10-19T09:42:41.260Z,12.90
2017-10-19T09:45:08.402Z,13.10
2017-10-19T09:47:35.105Z,13.30
2017-10-19T09:50:01.953Z,13.50
2017-10-19T09:52:28.534Z,13.60
2017-10-19T09:54:55.528Z,14.00
2017-10-19T09:57:21.790Z,13.90
2017-10-19T09:59:48.196Z,14.20
2017-10-19T10:02:15.629Z,14.30
2017-10-19T10:04:44.525Z,14.40
2017-10-19T10:07:11.428Z,14.40
2017-10-19T10:09:37.643Z,14.30
2017-10-19T10:12:04.180Z,14.10
2017-10-19T10:14:31.208Z,14.30
2017-10-19T10:16:57.471Z,14.20
2017-10-19T10:19:24.242Z,14.40
2017-10-19T10:21:51.604Z,14.40
2017-10-19T10:24:18.659Z,14.30
2017-10-19T10:26:45.514Z,14.20
2017-10-19T10:29:12.367Z,14.10
2017-10-19T10:31:38.576Z,14.10
2017-10-19T10:34:04.895Z,14.00
2017-10-19T10:36:32.801Z,14.00
2017-10-19T10:38:59.049Z,14.10
2017-10-19T10:41:26.362Z,14.30
2017-10-19T10:43:52.883Z,14.30
2017-10-19T10:46:19.120Z,14.30
2017-10-19T10:48:45.374Z,14.40
2017-10-19T10:51:12.229Z,14.30
2017-10-19T10:53:38.628Z,14.40
2017-10-19T10:56:05.435Z,14.50
2017-10-19T10:58:32.964Z,14.60
2017-10-19T11:01:00.198Z,14.70
2017-10-19T11:03:26.451Z,14.70
2017-10-19T11:05:52.692Z,14.70
2017-10-19T11:08:20.110Z,14.50
2017-10-19T11:10:47.153Z,14.40
2017-10-19T11:13:20.811Z,14.20
2017-10-19T11:15:47.880Z,14.20
2017-10-19T11:18:14.381Z,14.20
2017-10-19T11:20:41.399Z,14.70
2017-10-19T11:23:08.049Z,14.70
2017-10-19T11:25:35.709Z,15.20
2017-10-19T11:28:02.059Z,15.20
2017-10-19T11:30:29.559Z,15.40
2017-10-19T11:32:56.423Z,15.40
2017-10-19T11:35:22.881Z,15.60
2017-10-19T11:37:49.887Z,15.80
2017-10-19T11:40:16.212Z,15.80
2017-10-19T11:42:42.452Z,15.90
2017-10-19T11:45:09.120Z,16.00
2017-10-19T11:47:36.784Z,16.20
2017-10-19T11:50:03.520Z,16.20
2017-10-19T11:52:29.981Z,16.30
2017-10-19T11:54:57.317Z,16.70
2017-10-19T11:57:24.386Z,16.70
2017-10-19T11:59:51.743Z,16.70
2017-10-19T12:02:18.320Z,16.70
2017-10-19T12:04:45.588Z,16.80
2017-10-19T12:07:13.618Z,16.90
2017-10-19T12:09:40.748Z,16.70
2017-10-19T12:12:07.011Z,16.70
2017-10-19T12:14:33.391Z,16.90
2017-10-19T12:17:00.721Z,16.80
2017-10-19T12:19:27.947Z,16.80
2017-10-19T12:21:54.896Z,16.80
2017-10-19T12:24:21.097Z,17.00
2017-10-19T12:26:47.332Z,17.10
2017-10-19T12:29:14.124Z,17.10
2017-10-19T12:31:40.711Z,17.00
2017-10-19T12:34:07.751Z,17.50
2017-10-19T12:36:34.263Z,17.40
2017-10-19T12:39:01.272Z,17.50
2017-10-19T12:41:27.504Z,17.50
2017-10-19T12:43:53.835Z,17.50
2017-10-19T12:46:20.484Z,17.40
2017-10-19T12:48:46.731Z,17.40
2017-10-19T13:01:00.688Z,17.40
2017-10-19T13:03:27.183Z,17.40
2017-10-19T13:05:54.222Z,17.80
2017-10-19T13:08:21.365Z,17.80
2017-10-19T13:10:48.362Z,17.70
2017-10-19T13:13:15.049Z,17.70
2017-10-19T13:15:42.394Z,17.80
2017-10-19T13:18:08.584Z,17.80
2017-10-19T13:20:35.792Z,17.80
2017-10-19T13:23:02.028Z,17.70
2017-10-19T13:25:29.337Z,17.70
2017-10-19T13:27:55.736Z,17.60
2017-10-19T13:30:22.131Z,17.50
2017-10-19T13:32:48.844Z,17.50
2017-10-19T13:35:16.534Z,17.50
2017-10-19T13:37:43.506Z,17.70
2017-10-19T13:40:09.942Z,17.70
2017-10-19T13:42:36.768Z,17.80
2017-10-19T13:45:03.160Z,17.60
2017-10-19T13:47:30.495Z,17.00
2017-10-19T13:49:58.073Z,17.10
2017-10-19T13:52:24.840Z,17.10
2017-10-19T13:54:54.082Z,17.20
2017-10-19T13:57:20.294Z,17.10
2017-10-19T13:59:47.229Z,17.20
2017-10-19T14:02:26.390Z,17.30
2017-10-19T14:05:06.439Z,17.20
2017-10-19T14:07:43.200Z,17.30
2017-10-19T14:10:10.517Z,17.30
2017-10-19T14:12:37.866Z,17.10
2017-10-19T14:15:04.815Z,17.20
2017-10-19T14:17:32.311Z,16.90
2017-10-19T14:19:59.327Z,16.80
2017-10-19T14:22:26.993Z,16.70
2017-10-19T14:24:54.111Z,16.40
2017-10-19T14:27:20.361Z,16.30
2017-10-19T14:29:48.628Z,16.40
2017-10-19T14:32:16.163Z,16.50
2017-10-19T14:34:43.350Z,16.50
2017-10-19T14:37:10.518Z,16.50
2017-10-19T14:39:37.276Z,16.50
2017-10-19T14:42:03.535Z,16.40
2017-10-19T14:44:30.259Z,16.50
2017-10-19T14:46:57.785Z,16.30
2017-10-19T14:49:24.591Z,16.30
2017-10-19T14:51:51.647Z,16.30
2017-10-19T14:54:18.686Z,16.10
2017-10-19T14:56:46.639Z,16.00
2017-10-19T14:59:13.431Z,16.00
2017-10-19T15:01:40.192Z,15.90
2017-10-19T15:04:07.161Z,15.70
2017-10-19T15:06:33.531Z,15.70
2017-10-19T15:09:00.176Z,15.70
2017-10-19T15:11:27.208Z,15.60
2017-10-19T15:13:54.317Z,15.50
2017-10-19T15:16:21.587Z,15.40
2017-10-19T15:18:49.068Z,15.20
2017-10-19T15:21:17.338Z,15.10
2017-10-19T15:23:44.554Z,15.10
2017-10-19T15:26:11.142Z,15.10
2017-10-19T15:28:38.795Z,15.00
2017-10-19T15:31:05.088Z,15.00
2017-10-19T15:33:32.793Z,15.00
2017-10-19T15:36:00.193Z,14.90
2017-10-19T15:38:27.193Z,14.80
2017-10-19T15:40:53.421Z,14.80
2017-10-19T15:43:20.272Z,14.70
2017-10-19T15:45:47.017Z,14.60
2017-10-19T15:48:14.103Z,14.70
2017-10-19T15:50:53.237Z,14.60
2017-10-19T15:53:20.879Z,14.60
2017-10-19T15:55:47.678Z,14.50
2017-10-19T15:58:14.679Z,14.40
2017-10-19T16:00:41.330Z,14.30
2017-10-19T16:03:08.981Z,14.30
2017-10-19T16:05:35.724Z,14.30
2017-10-19T16:08:02.767Z,14.20
2017-10-19T16:10:30.208Z,14.10
2017-10-19T16:12:56.691Z,14.10
2017-10-19T16:15:22.934Z,14.00
2017-10-19T16:17:49.161Z,13.90
2017-10-19T16:20:15.916Z,13.80
2017-10-19T16:22:42.522Z,13.80
2017-10-19T16:25:10.860Z,13.60
2017-10-19T16:27:37.757Z,13.60
2017-10-19T16:30:05.422Z,13.60
2017-10-19T16:32:31.904Z,13.60
2017-10-19T16:34:59.328Z,13.30
2017-10-19T16:37:26.979Z,13.20
2017-10-19T16:39:54.017Z,13.10
2017-10-19T16:42:20.562Z,13.00
2017-10-19T16:44:48.031Z,12.80
2017-10-19T16:47:14.819Z,12.80
2017-10-19T16:49:42.203Z,12.50
2017-10-19T16:52:08.854Z,12.50
2017-10-19T16:54:36.468Z,12.40
2017-10-19T16:57:02.739Z,12.40
2017-10-19T16:59:29.565Z,12.30
2017-10-19T17:01:55.816Z,12.30
2017-10-19T17:04:22.023Z,12.20
2017-10-19T17:06:49.980Z,12.00
2017-10-19T17:09:17.971Z,12.00
2017-10-19T17:11:44.624Z,11.90
2017-10-19T17:14:12.828Z,11.90
2017-10-19T17:16:40.358Z,11.90
2017-10-19T17:19:06.699Z,11.90
2017-10-19T17:21:33.585Z,12.00
2017-10-19T17:23:59.865Z,12.10
2017-10-19T17:26:26.168Z,12.10
2017-10-19T17:28:53.356Z,12.20
2017-10-19T17:31:20.806Z,12.20
2017-10-19T17:33:47.156Z,12.20
2017-10-19T17:36:14.252Z,12.20
2017-10-19T17:38:40.532Z,12.20
2017-10-19T17:41:06.766Z,12.10
2017-10-19T17:43:33.151Z,12.10
2017-10-19T17:46:00.162Z,12.00
2017-10-19T17:48:26.423Z,12.00
2017-10-19T17:50:52.658Z,12.00
2017-10-19T17:53:18.903Z,12.00
2017-10-19T17:55:46.692Z,12.00
2017-10-19T17:58:13.338Z,12.10
2017-10-19T18:00:40.920Z,12.10
2017-10-19T18:03:08.958Z,12.20
2017-10-19T18:05:35.316Z,12.20
2017-10-19T18:08:02.609Z,12.00
2017-10-19T18:10:29.990Z,12.00
2017-10-19T18:12:57.723Z,11.90
2017-10-19T18:15:24.524Z,11.90
2017-10-19T18:17:51.515Z,11.90
2017-10-19T18:20:17.853Z,11.90
2017-10-19T18:22:44.256Z,11.90
2017-10-19T18:25:10.510Z,11.80
2017-10-19T18:27:36.862Z,11.80
2017-10-19T18:30:04.193Z,11.80
2017-10-19T18:32:30.495Z,11.80
2017-10-19T18:34:57.827Z,11.80
2017-10-19T18:37:24.606Z,11.80
2017-10-19T18:39:52.312Z,11.70
2017-10-19T18:42:18.636Z,11.70
2017-10-19T18:44:45.914Z,11.60
2017-10-19T18:47:13.489Z,11.50
2017-10-19T18:49:40.678Z,11.40
2017-10-19T18:52:06.883Z,11.40
2017-10-19T18:54:33.559Z,11.30
2017-10-19T18:57:00.574Z,11.30
2017-10-19T18:59:27.029Z,11.30
2017-10-19T19:01:54.328Z,11.30
2017-10-19T19:04:21.647Z,11.20
2017-10-19T19:06:49.023Z,11.20
2017-10-19T19:09:16.900Z,11.20
2017-10-19T19:11:44.255Z,11.20
2017-10-19T19:14:11.491Z,11.10
2017-10-19T19:16:38.707Z,11.10
2017-10-19T19:19:04.943Z,11.10
2017-10-19T19:21:32.042Z,11.10
2017-10-19T19:23:59.499Z,11.00
2017-10-19T19:26:25.976Z,11.00
2017-10-19T19:28:53.455Z,10.90
2017-10-19T19:31:20.471Z,10.80
2017-10-19T19:33:46.685Z,10.70
2017-10-19T19:36:12.942Z,10.60
2017-10-19T19:38:39.153Z,10.60
2017-10-19T19:41:05.524Z,10.70
2017-10-19T19:43:31.717Z,10.80
2017-10-19T19:45:58.202Z,10.60
2017-10-19T19:48:25.786Z,10.40
2017-10-19T19:50:53.536Z,10.50
2017-10-19T19:53:20.492Z,10.40
2017-10-19T19:55:46.739Z,10.40
2017-10-19T19:58:13.487Z,10.40
2017-10-19T20:00:39.934Z,10.30
2017-10-19T20:03:07.784Z,10.40
2017-10-19T20:05:34.028Z,10.40
2017-10-19T20:08:00.764Z,10.40
2017-10-19T20:10:27.114Z,10.30
2017-10-19T20:12:53.364Z,10.30
2017-10-19T20:15:21.688Z,10.40
2017-10-19T20:17:48.693Z,10.50
2017-10-19T20:20:15.844Z,10.50
2017-10-19T20:22:43.204Z,10.50
2017-10-19T20:25:10.976Z,10.60
2017-10-19T20:27:39.489Z,10.70
2017-10-19T20:30:07.138Z,10.70
2017-10-19T20:32:33.904Z,10.70
2017-10-19T20:35:00.121Z,10.70
2017-10-19T20:37:26.352Z,10.70
2017-10-19T20:39:52.586Z,10.80
2017-10-19T20:42:19.448Z,10.80
2017-10-19T20:44:45.700Z,10.90
2017-10-19T20:47:12.639Z,10.80
2017-10-19T20:49:40.232Z,10.80
2017-10-19T20:52:06.699Z,10.80
2017-10-19T20:54:32.946Z,10.90
2017-10-19T20:57:00.582Z,10.80
2017-10-19T20:59:26.765Z,10.60
2017-10-19T21:01:52.993Z,10.60
2017-10-19T21:04:19.199Z,10.60
2017-10-19T21:06:46.990Z,10.50
2017-10-19T21:09:14.361Z,10.30
2017-10-19T21:11:42.139Z,10.30
2017-10-19T21:14:09.822Z,10.30
2017-10-19T21:16:36.067Z,10.30
2017-10-19T21:19:02.830Z,10.40
2017-10-19T21:21:30.347Z,10.40
2017-10-19T21:23:56.872Z,10.40
2017-10-19T21:26:24.633Z,10.40
2017-10-19T21:28:51.449Z,10.30
2017-10-19T21:31:17.664Z,10.30
2017-10-19T21:33:44.038Z,10.30
2017-10-19T21:36:11.558Z,10.20
2017-10-19T21:38:37.770Z,10.20
2017-10-19T21:41:04.986Z,10.30
2017-10-19T21:43:31.183Z,10.30
2017-10-19T21:45:58.120Z,10.30
2017-10-19T21:48:24.514Z,10.20
2017-10-19T21:50:51.563Z,10.20
2017-10-19T21:53:18.519Z,10.10
2017-10-19T21:55:45.271Z,10.00
2017-10-19T21:58:11.485Z,10.00
2017-10-19T22:00:38.323Z,10.00
2017-10-19T22:03:05.301Z,10.10
2017-10-19T22:05:31.531Z,10.10
2017-10-19T22:07:57.771Z,10.00
2017-10-19T22:10:24.623Z,10.10
2017-10-19T22:12:50.816Z,10.10
2017-10-19T22:15:17.627Z,10.00
2017-10-19T22:17:45.039Z,10.00
2017-10-19T22:20:11.234Z,9.90
2017-10-19T22:22:37.978Z,9.80
2017-10-19T22:25:04.188Z,9.70
2017-10-19T22:27:31.227Z,9.70
2017-10-19T22:29:58.505Z,9.50
2017-10-19T22:32:25.525Z,9.40
2017-10-19T22:34:52.520Z,9.50
2017-10-19T22:37:18.720Z,9.50
2017-10-19T22:39:44.924Z,9.50
2017-10-19T22:42:11.906Z,9.30
2017-10-19T22:44:38.119Z,9.20
2017-10-19T22:47:04.911Z,9.30
2017-10-19T22:49:31.716Z,9.30
2017-10-19T22:51:58.459Z,9.30
2017-10-19T22:54:24.668Z,9.30
2017-10-19T22:56:50.923Z,9.30
2017-10-19T22:59:17.944Z,9.30
2017-10-19T23:01:45.586Z,9.20
2017-10-19T23:04:12.998Z,9.20
2017-10-19T23:06:39.959Z,9.30
2017-10-19T23:09:06.240Z,9.30
2017-10-19T23:11:32.453Z,9.30
2017-10-19T23:13:58.794Z,9.30
2017-10-19T23:16:26.306Z,9.30
2017-10-19T23:18:52.732Z,9.20
2017-10-19T23:21:18.964Z,9.20
2017-10-19T23:23:45.456Z,9.10
2017-10-19T23:26:12.534Z,9.10
2017-10-19T23:28:38.751Z,9.10
2017-10-19T23:31:04.950Z,9.10
2017-10-19T23:33:31.133Z,9.00
2017-10-19T23:35:57.852Z,9.00
2017-10-19T23:38:24.831Z,8.90
2017-10-19T23:40:52.238Z,9.00
2017-10-19T23:43:19.217Z,9.00
2017-10-19T23:45:45.427Z,9.00
2017-10-19T23:48:11.608Z,8.90
2017-10-19T23:50:37.823Z,8.90
2017-10-19T23:53:04.756Z,8.80
2017-10-19T23:55:31.684Z,8.70
2017-10-19T23:57:59.323Z,8.70
